Time;durP1;ratioP1;P1;durP2;ratioP2;P2;SDS_P1;SDS_P2;PMS_P1;PMS_P2;Temp;Humidity;BMP_temperature;BMP_pressure;BME280_temperature;BME280_humidity;BME280_pressure;Samples;Min_cycle;Max_cycle;Signal;HPM_P1;HPM_P2
2023/02/25 00:00:23;;;;;;;21.15;5.90;;;;;;;5.30;82.68;101252.66;4988722;28;20054;-46
2023/02/25 00:03:11;;;;;;;22.38;6.05;;;;;;;5.26;82.74;101243.41;4993524;28;20061;-46
2023/02/25 00:06:03;;;;;;;26.73;5.35;;;;;;;5.24;83.11;101250.31;4984936;28;20169;-45
2023/02/25 00:08:51;;;;;;;24.67;6.20;;;;;;;5.25;83.19;101257.41;4988657;28;20145;-46
2023/02/25 00:11:38;;;;;;;27.80;6.65;;;;;;;5.26;83.41;101251.63;4985264;28;20134;-45
2023/02/25 00:14:26;;;;;;;24.73;5.70;;;;;;;5.27;83.05;101256.00;4986974;28;20090;-46
2023/02/25 00:17:13;;;;;;;21.20;5.95;;;;;;;5.25;83.20;101258.22;4989560;28;20046;-46
2023/02/25 00:20:01;;;;;;;25.15;6.05;;;;;;;5.25;83.34;101257.41;4989375;28;20512;-45
2023/02/25 00:22:48;;;;;;;18.58;5.90;;;;;;;5.23;83.32;101265.97;4988471;28;20061;-51
2023/02/25 00:25:35;;;;;;;18.80;7.43;;;;;;;5.25;83.54;101268.38;4988511;28;20077;-47
2023/02/25 00:28:22;;;;;;;22.20;6.32;;;;;;;5.26;83.54;101270.03;4986676;28;20058;-45
2023/02/25 00:31:12;;;;;;;18.08;6.10;;;;;;;5.31;83.68;101265.28;4986805;28;20516;-45
2023/02/25 00:33:59;;;;;;;30.23;8.00;;;;;;;5.32;83.66;101269.66;4989017;28;20054;-45
2023/02/25 00:36:47;;;;;;;26.25;7.90;;;;;;;5.35;83.74;101271.81;4988265;28;20062;-45
2023/02/25 00:39:43;;;;;;;26.80;7.20;;;;;;;5.38;83.64;101265.72;4988319;28;20127;-48
2023/02/25 00:42:30;;;;;;;29.25;6.63;;;;;;;5.39;83.75;101250.06;4974738;28;20058;-51
2023/02/25 00:45:17;;;;;;;33.60;9.63;;;;;;;5.40;83.91;101260.75;4988811;28;20504;-46
2023/02/25 00:48:04;;;;;;;21.42;5.55;;;;;;;5.38;83.75;101253.91;4988267;28;20042;-45
2023/02/25 00:50:51;;;;;;;20.60;6.68;;;;;;;5.40;84.04;101252.50;4988842;28;20061;-45
2023/02/25 00:53:39;;;;;;;30.73;5.28;;;;;;;5.43;84.36;101257.41;4989048;28;20054;-46
2023/02/25 00:56:26;;;;;;;23.13;4.85;;;;;;;5.42;84.21;101253.03;4988305;28;20046;-45
2023/02/25 00:59:13;;;;;;;21.88;4.68;;;;;;;5.46;84.24;101248.56;4988081;28;20081;-48
2023/02/25 01:02:00;;;;;;;25.17;5.55;;;;;;;5.51;84.10;101258.66;4992132;28;20548;-45
2023/02/25 01:04:47;;;;;;;29.05;5.68;;;;;;;5.55;84.08;101265.19;4988062;28;20047;-46
2023/02/25 01:07:36;;;;;;;21.85;5.00;;;;;;;5.59;84.29;101254.44;4976344;28;20145;-45
2023/02/25 01:10:23;;;;;;;19.40;5.00;;;;;;;5.60;84.51;101258.78;4989229;28;20785;-45
2023/02/25 01:13:10;;;;;;;25.08;5.25;;;;;;;5.63;84.57;101256.28;4988827;28;20042;-45
2023/02/25 01:15:57;;;;;;;18.85;5.10;;;;;;;5.63;84.66;101258.19;4977477;28;20058;-45
2023/02/25 01:18:45;;;;;;;21.13;5.50;;;;;;;5.64;84.78;101260.63;4988172;28;20053;-45
2023/02/25 01:21:35;;;;;;;16.40;4.22;;;;;;;5.65;84.52;101258.69;4986689;28;20062;-46
2023/02/25 01:24:28;;;;;;;18.48;5.00;;;;;;;5.59;84.42;101252.47;4974117;28;20422;-45
2023/02/25 01:27:15;;;;;;;22.98;5.78;;;;;;;5.50;84.39;101249.63;4987532;28;20046;-45
2023/02/25 01:30:04;;;;;;;18.05;4.57;;;;;;;5.40;84.67;101235.25;4988255;28;20072;-47
2023/02/25 01:32:51;;;;;;;20.85;4.97;;;;;;;5.31;84.72;101240.56;4987739;28;20057;-48
2023/02/25 01:35:38;;;;;;;24.58;5.80;;;;;;;5.23;84.87;101245.91;4988750;28;20065;-49
2023/02/25 01:38:26;;;;;;;19.52;3.78;;;;;;;5.18;85.17;101246.81;4986535;28;20042;-47
2023/02/25 01:41:13;;;;;;;11.32;3.90;;;;;;;5.16;85.14;101253.72;4986713;28;20057;-47
2023/02/25 01:44:27;;;;;;;21.95;4.72;;;;;;;5.12;85.01;101258.16;4985759;28;20057;-49
2023/02/25 01:47:21;;;;;;;16.38;4.93;;;;;;;5.08;84.98;101263.44;4988707;28;20065;-45
2023/02/25 01:50:09;;;;;;;20.50;5.57;;;;;;;5.02;85.00;101263.78;4976825;28;20057;-45
2023/02/25 01:53:00;;;;;;;23.58;6.65;;;;;;;4.93;84.96;101266.38;4990427;28;20046;-45
2023/02/25 01:55:48;;;;;;;20.90;4.17;;;;;;;4.83;85.14;101255.53;4990802;28;20076;-45
2023/02/25 01:58:35;;;;;;;21.60;6.22;;;;;;;4.74;85.08;101249.06;4990997;28;20081;-51
2023/02/25 02:01:26;;;;;;;19.17;4.68;;;;;;;4.71;85.36;101247.72;4991008;28;20077;-45
2023/02/25 02:04:15;;;;;;;18.90;4.68;;;;;;;4.66;85.28;101245.06;4988664;28;20412;-47
2023/02/25 02:07:03;;;;;;;24.25;5.45;;;;;;;4.63;85.46;101239.34;4990872;28;20054;-46
2023/02/25 02:09:55;;;;;;;16.30;4.65;;;;;;;4.65;85.93;101248.91;4990582;28;20069;-49
2023/02/25 02:12:46;;;;;;;22.00;5.22;;;;;;;4.68;85.88;101245.59;4991497;28;20133;-47
2023/02/25 02:15:38;;;;;;;25.67;5.45;;;;;;;4.68;85.41;101253.81;4990331;28;20061;-46
2023/02/25 02:18:29;;;;;;;;;;;;;;;4.68;85.75;101250.25;4990801;28;20062;-45
2023/02/25 02:21:40;;;;;;;26.40;5.03;;;;;;;4.69;85.39;101262.84;4991050;28;20261;-45
2023/02/25 02:24:39;;;;;;;26.80;5.50;;;;;;;4.68;85.57;101259.31;4989998;28;20507;-45
2023/02/25 02:27:57;;;;;;;22.30;7.40;;;;;;;4.73;85.87;101261.97;4990049;28;20046;-45
2023/02/25 02:31:15;;;;;;;24.67;6.13;;;;;;;4.77;85.73;101273.16;4981501;28;20489;-46
2023/02/25 02:34:40;;;;;;;24.75;4.85;;;;;;;4.78;85.93;101283.03;4980758;28;20054;-45
2023/02/25 02:37:44;;;;;;;17.02;3.88;;;;;;;4.76;85.64;101279.78;4983330;28;20142;-45
2023/02/25 02:40:42;;;;;;;17.52;5.20;;;;;;;4.73;85.76;101277.63;4982350;28;20188;-45
2023/02/25 02:43:39;;;;;;;22.30;5.15;;;;;;;4.71;85.82;101277.09;4978432;28;20050;-45
2023/02/25 02:46:34;;;;;;;21.25;4.72;;;;;;;4.70;85.82;101283.69;4989685;28;20073;-45
2023/02/25 02:49:56;;;;;;;15.02;5.63;;;;;;;4.68;86.45;101280.44;4990492;28;20050;-46
2023/02/25 02:52:50;;;;;;;16.95;5.93;;;;;;;4.67;86.49;101279.59;4979013;28;20042;-46
2023/02/25 02:55:47;;;;;;;19.92;4.22;;;;;;;4.72;86.58;101289.69;4991404;28;20065;-45
2023/02/25 02:58:42;;;;;;;21.17;5.57;;;;;;;4.73;86.15;101291.34;4990004;28;20047;-49
2023/02/25 03:01:33;;;;;;;15.60;4.38;;;;;;;4.73;86.47;101305.03;5038536;23;20054;-45
2023/02/25 03:04:26;;;;;;;16.70;3.93;;;;;;;4.73;86.34;101305.03;4997954;28;20049;-45
2023/02/25 03:07:16;;;;;;;14.60;3.60;;;;;;;4.75;86.27;101313.78;5009325;28;20054;-45
2023/02/25 03:10:07;;;;;;;16.48;3.88;;;;;;;4.74;86.47;101317.63;5011340;28;20462;-45
2023/02/25 03:12:54;;;;;;;16.80;4.32;;;;;;;4.71;86.37;101319.03;5006724;28;20065;-45
2023/02/25 03:15:42;;;;;;;16.88;3.67;;;;;;;4.69;86.63;101303.97;4994489;28;20462;-46
2023/02/25 03:18:52;;;;;;;18.05;3.60;;;;;;;4.68;86.86;101308.69;5006534;28;20372;-45
2023/02/25 03:21:48;;;;;;;16.02;5.07;;;;;;;4.67;86.66;101308.94;5003967;28;20450;-45
2023/02/25 03:24:44;;;;;;;20.38;3.63;;;;;;;4.68;86.70;101308.69;5008959;28;20050;-50
2023/02/25 03:27:42;;;;;;;17.05;5.07;;;;;;;4.69;86.64;101309.47;5008325;28;20057;-46
2023/02/25 03:30:45;;;;;;;16.60;4.65;;;;;;;4.67;86.97;101311.69;5008776;28;20061;-45
2023/02/25 03:33:47;;;;;;;18.67;3.88;;;;;;;4.64;86.98;101312.28;5009281;28;20196;-45
2023/02/25 03:36:44;;;;;;;23.60;4.80;;;;;;;4.63;87.15;101313.41;5008287;28;20056;-46
2023/02/25 03:39:37;;;;;;;13.38;3.47;;;;;;;4.68;87.51;101318.81;5009813;28;20057;-49
2023/02/25 03:42:31;;;;;;;13.90;3.10;;;;;;;4.69;87.43;101314.94;5009680;28;20050;-45
2023/02/25 03:45:20;;;;;;;16.83;4.72;;;;;;;4.72;87.36;101325.34;5008781;28;20045;-45
2023/02/25 03:48:09;;;;;;;25.75;5.93;;;;;;;4.75;87.32;101322.84;5008108;28;20046;-45
2023/02/25 03:51:01;;;;;;;12.75;3.10;;;;;;;4.76;87.58;101326.41;5008730;28;20064;-45
2023/02/25 03:53:49;;;;;;;12.63;3.83;;;;;;;4.80;87.45;101321.94;5007579;28;20054;-45
2023/02/25 03:56:45;;;;;;;8.75;2.72;;;;;;;4.82;87.69;101327.97;5009052;28;20053;-51
2023/02/25 03:59:31;;;;;;;21.40;3.17;;;;;;;4.85;87.47;101330.13;5009032;28;20496;-45
2023/02/25 04:02:20;;;;;;;9.25;2.63;;;;;;;4.87;87.57;101336.94;5013890;28;20064;-45
2023/02/25 04:05:09;;;;;;;14.95;3.33;;;;;;;4.89;87.57;101331.19;5008308;28;20518;-46
2023/02/25 04:07:58;;;;;;;12.40;3.03;;;;;;;4.90;87.56;101327.31;5009915;28;20057;-47
2023/02/25 04:10:45;;;;;;;15.07;2.75;;;;;;;4.93;87.88;101334.97;5007987;28;20052;-46
2023/02/25 04:13:32;;;;;;;9.02;3.03;;;;;;;4.94;87.70;101347.59;5002223;28;20062;-49
2023/02/25 04:16:19;;;;;;;13.27;2.85;;;;;;;4.98;88.04;101340.38;5008769;28;20050;-45
2023/02/25 04:19:07;;;;;;;11.07;2.78;;;;;;;5.01;88.03;101334.31;5008611;28;20065;-46
2023/02/25 04:21:54;;;;;;;17.95;4.30;;;;;;;5.06;88.08;101334.25;5008804;28;20388;-45
2023/02/25 04:24:41;;;;;;;11.68;2.65;;;;;;;5.11;87.92;101338.88;5008849;28;20427;-46
2023/02/25 04:27:28;;;;;;;7.63;2.60;;;;;;;5.13;88.05;101334.72;5007977;28;20045;-46
2023/02/25 04:30:15;;;;;;;13.18;2.42;;;;;;;5.17;88.02;101341.25;5008601;28;20042;-45
2023/02/25 04:33:02;;;;;;;13.10;3.20;;;;;;;5.18;88.26;101345.63;5008510;28;20054;-45
2023/02/25 04:35:49;;;;;;;12.25;2.80;;;;;;;5.19;87.98;101350.00;5008113;28;20483;-46
2023/02/25 04:38:36;;;;;;;4.15;2.03;;;;;;;5.20;88.16;101348.88;4997591;28;20419;-45
2023/02/25 04:41:28;;;;;;;10.07;2.53;;;;;;;5.22;88.04;101345.84;5006835;28;20514;-45
2023/02/25 04:44:15;;;;;;;15.40;3.58;;;;;;;5.21;88.17;101353.28;5007045;28;20058;-51
2023/02/25 04:47:02;;;;;;;9.30;2.30;;;;;;;5.22;88.22;101352.16;5008324;28;20054;-46
2023/02/25 04:49:49;;;;;;;15.40;2.25;;;;;;;5.21;87.95;101356.03;4994910;28;20053;-47
2023/02/25 04:52:36;;;;;;;10.20;1.70;;;;;;;5.20;87.95;101348.88;5008016;28;20068;-50
2023/02/25 04:55:23;;;;;;;5.00;1.30;;;;;;;5.21;88.06;101353.28;5007175;28;20061;-46
2023/02/25 04:58:10;;;;;;;6.97;1.58;;;;;;;5.25;88.10;101373.53;5008067;28;20423;-46
2023/02/25 05:01:01;;;;;;;10.73;1.35;;;;;;;5.27;87.98;101371.28;5005898;28;20767;-45
2023/02/25 05:03:49;;;;;;;5.93;1.17;;;;;;;5.32;88.09;101378.66;5002974;28;20069;-45
2023/02/25 05:06:36;;;;;;;4.32;1.08;;;;;;;5.33;87.75;101386.59;4993923;28;20053;-46
2023/02/25 05:09:23;;;;;;;8.95;1.23;;;;;;;5.35;87.88;101383.53;5008379;28;20049;-45
2023/02/25 05:12:09;;;;;;;3.45;2.03;;;;;;;5.34;87.80;101388.25;5008286;28;20379;-47
2023/02/25 05:14:56;;;;;;;3.13;0.80;;;;;;;5.37;87.62;101384.09;5001786;28;20053;-51
2023/02/25 05:17:43;;;;;;;5.45;0.88;;;;;;;5.37;87.06;101382.16;5005258;28;20057;-47
2023/02/25 05:20:30;;;;;;;5.70;0.90;;;;;;;5.36;87.21;101386.00;5008794;28;20057;-45
2023/02/25 05:23:17;;;;;;;3.47;0.50;;;;;;;5.38;87.12;101393.94;5004727;28;20049;-46
2023/02/25 05:26:05;;;;;;;1.75;1.00;;;;;;;5.38;86.99;101383.78;5007236;28;20058;-46
2023/02/25 05:28:54;;;;;;;2.20;0.80;;;;;;;5.39;86.92;101396.41;5006605;28;20046;-45
2023/02/25 05:31:41;;;;;;;6.40;0.73;;;;;;;5.39;86.87;101396.41;5007083;28;20053;-45
2023/02/25 05:34:28;;;;;;;4.55;1.00;;;;;;;5.41;86.54;101393.34;5006223;28;20642;-49
2023/02/25 05:37:16;;;;;;;4.53;1.00;;;;;;;5.40;86.43;101387.03;5008754;28;20049;-45
2023/02/25 05:40:03;;;;;;;4.57;1.02;;;;;;;5.40;86.63;101381.56;5007902;28;20050;-46
2023/02/25 05:42:50;;;;;;;4.18;0.50;;;;;;;5.40;86.24;101383.50;5005682;28;20061;-46
2023/02/25 05:45:37;;;;;;;5.65;1.20;;;;;;;5.39;86.36;101377.19;5006593;28;20066;-45
2023/02/25 05:48:24;;;;;;;6.78;1.10;;;;;;;5.39;86.28;101385.44;5007618;28;20046;-46
2023/02/25 05:51:17;;;;;;;4.57;1.10;;;;;;;5.38;85.88;101381.03;5004053;28;20057;-47
2023/02/25 05:54:04;;;;;;;5.45;0.90;;;;;;;5.38;85.81;101388.44;5008393;28;20053;-46
2023/02/25 05:56:51;;;;;;;3.50;0.75;;;;;;;5.36;85.74;101387.94;5006474;28;20076;-45
2023/02/25 05:59:38;;;;;;;4.75;0.85;;;;;;;5.34;85.58;101382.75;5007103;28;20058;-45
2023/02/25 06:02:26;;;;;;;3.90;0.70;;;;;;;5.33;85.72;101381.09;5010227;28;20512;-46
2023/02/25 06:05:13;;;;;;;3.17;0.70;;;;;;;5.31;85.63;101377.84;5007877;28;20050;-45
2023/02/25 06:08:00;;;;;;;5.60;0.85;;;;;;;5.28;85.48;101389.41;5006811;28;20045;-45
2023/02/25 06:10:47;;;;;;;2.47;0.70;;;;;;;5.27;85.22;101404.25;5008093;28;20414;-45
2023/02/25 06:13:34;;;;;;;3.78;0.82;;;;;;;5.29;85.45;101398.47;4999736;28;20046;-48
2023/02/25 06:16:24;;;;;;;3.97;0.73;;;;;;;5.31;85.32;101399.81;5007571;28;20053;-47
2023/02/25 06:19:12;;;;;;;4.68;0.77;;;;;;;5.31;85.22;101394.31;5006823;28;20163;-45
2023/02/25 06:21:59;;;;;;;2.25;0.55;;;;;;;5.31;84.98;101399.00;5006826;28;20057;-45
2023/02/25 06:24:46;;;;;;;3.63;0.55;;;;;;;5.31;84.83;101393.50;5007791;28;20046;-45
2023/02/25 06:27:32;;;;;;;4.20;1.00;;;;;;;5.30;84.50;101384.44;5006446;28;20058;-45
2023/02/25 06:30:19;;;;;;;5.57;0.88;;;;;;;5.29;84.61;101404.78;5007712;28;20050;-45
2023/02/25 06:33:06;;;;;;;3.85;0.95;;;;;;;5.30;84.62;101408.31;5006554;28;20065;-45
2023/02/25 06:35:54;;;;;;;1.75;0.55;;;;;;;5.30;84.43;101417.38;5007404;28;20495;-46
2023/02/25 06:38:42;;;;;;;10.40;0.65;;;;;;;5.30;84.44;101411.88;4999387;28;20057;-46
2023/02/25 06:41:29;;;;;;;1.55;0.43;;;;;;;5.30;84.22;101411.88;5010287;28;20038;-45
2023/02/25 06:44:16;;;;;;;3.22;0.70;;;;;;;5.29;84.03;101412.19;5008722;28;20052;-46
2023/02/25 06:47:03;;;;;;;3.10;0.65;;;;;;;5.28;84.08;101416.88;5010912;28;20054;-45
2023/02/25 06:49:50;;;;;;;4.78;0.70;;;;;;;5.28;84.19;101422.34;5010102;28;20053;-45
2023/02/25 06:52:37;;;;;;;5.63;0.50;;;;;;;5.26;83.89;101423.75;5011447;28;20057;-46
2023/02/25 06:55:25;;;;;;;3.20;0.77;;;;;;;5.24;83.99;101426.78;5010310;28;20427;-45
2023/02/25 06:58:12;;;;;;;3.97;0.50;;;;;;;5.22;83.56;101425.44;4996798;28;20049;-45
2023/02/25 07:01:05;;;;;;;5.85;0.68;;;;;;;5.21;83.39;101432.88;5007804;28;20060;-45
2023/02/25 07:03:52;;;;;;;1.77;0.40;;;;;;;5.23;83.45;101435.31;5006495;28;20053;-46
2023/02/25 07:06:39;;;;;;;1.88;0.57;;;;;;;5.21;83.27;101446.59;5010200;28;20057;-45
2023/02/25 07:09:26;;;;;;;1.35;0.40;;;;;;;5.21;82.85;101441.13;4997119;28;20057;-46
2023/02/25 07:12:13;;;;;;;6.15;0.70;;;;;;;5.20;83.16;101458.69;5009920;28;20054;-45
2023/02/25 07:15:00;;;;;;;5.20;0.60;;;;;;;5.20;83.16;101455.94;5008883;28;20050;-46
2023/02/25 07:17:48;;;;;;;2.78;0.93;;;;;;;5.21;82.88;101457.59;5008775;28;20058;-45
2023/02/25 07:20:37;;;;;;;0.77;0.50;;;;;;;5.20;82.73;101450.44;5010251;28;20057;-46
2023/02/25 07:23:25;;;;;;;2.83;0.60;;;;;;;5.22;82.28;101461.94;5009846;28;20057;-45
2023/02/25 07:26:13;;;;;;;1.85;0.47;;;;;;;5.23;82.69;101462.78;5009951;28;20071;-46
2023/02/25 07:29:00;;;;;;;1.83;0.47;;;;;;;5.23;82.35;101463.59;5009095;28;20042;-46
2023/02/25 07:31:47;;;;;;;5.00;0.60;;;;;;;5.23;82.28;101469.09;5010230;28;20042;-45
2023/02/25 07:34:35;;;;;;;0.73;0.20;;;;;;;5.23;82.09;101469.09;5009855;28;20089;-45
2023/02/25 07:37:22;;;;;;;2.15;0.63;;;;;;;5.21;81.99;101465.81;4995816;28;20554;-46
2023/02/25 07:40:11;;;;;;;4.53;1.02;;;;;;;5.20;81.53;101472.41;5009631;28;20046;-45
2023/02/25 07:42:58;;;;;;;1.85;0.50;;;;;;;5.21;81.69;101465.81;5009502;28;20104;-47
2023/02/25 07:45:48;;;;;;;5.45;0.40;;;;;;;5.21;81.64;101476.81;5010402;28;20065;-46
2023/02/25 07:48:35;;;;;;;6.70;0.85;;;;;;;5.23;81.51;101471.00;5008866;28;20526;-45
2023/02/25 07:51:24;;;;;;;3.30;0.60;;;;;;;5.22;81.14;101480.34;5009097;28;20057;-45
2023/02/25 07:54:11;;;;;;;7.28;0.80;;;;;;;5.24;81.08;101481.69;5007897;28;20050;-45
2023/02/25 07:56:58;;;;;;;3.20;0.35;;;;;;;5.25;81.15;101486.06;5008760;28;20058;-46
2023/02/25 07:59:45;;;;;;;4.80;0.45;;;;;;;5.28;80.97;101477.25;5010862;28;20069;-45
2023/02/25 08:02:32;;;;;;;2.35;0.60;;;;;;;5.29;81.00;101484.41;5012637;28;20064;-45
2023/02/25 08:05:21;;;;;;;3.35;0.73;;;;;;;5.30;80.95;101491.50;5009038;28;20080;-45
2023/02/25 08:08:08;;;;;;;3.17;0.43;;;;;;;5.32;80.85;101494.78;4998037;28;20046;-45
2023/02/25 08:10:55;;;;;;;1.05;0.40;;;;;;;5.32;80.67;101497.53;4999305;28;20069;-47
2023/02/25 08:13:42;;;;;;;2.67;0.88;;;;;;;5.32;80.70;101500.25;5002471;28;20054;-46
2023/02/25 08:16:29;;;;;;;2.85;0.45;;;;;;;5.34;80.51;101502.72;5009055;28;20060;-49
2023/02/25 08:19:16;;;;;;;0.70;0.30;;;;;;;5.35;80.43;101510.66;5008866;28;20053;-46
2023/02/25 08:22:03;;;;;;;1.92;0.57;;;;;;;5.37;80.21;101508.47;5007415;28;20057;-49
2023/02/25 08:24:50;;;;;;;1.23;0.30;;;;;;;5.38;80.37;101510.09;5006283;28;20050;-47
2023/02/25 08:27:37;;;;;;;7.05;1.35;;;;;;;5.39;80.22;101517.22;4998027;28;20058;-47
2023/02/25 08:30:24;;;;;;;3.03;0.40;;;;;;;5.41;79.99;101520.50;5007303;28;20088;-46
2023/02/25 08:33:11;;;;;;;0.95;0.60;;;;;;;5.43;79.43;101512.78;5008526;28;20064;-46
2023/02/25 08:36:11;;;;;;;4.07;0.70;;;;;;;5.45;79.40;101529.75;5007578;28;20066;-45
2023/02/25 08:38:59;;;;;;;4.18;0.63;;;;;;;5.49;78.67;101532.75;5007983;28;20653;-49
2023/02/25 08:41:46;;;;;;;0.70;0.30;;;;;;;5.54;78.86;101535.44;4989354;28;20058;-46
2023/02/25 08:44:32;;;;;;;5.00;1.20;;;;;;;5.62;78.67;101536.72;5002286;28;20053;-49
2023/02/25 08:47:19;;;;;;;3.50;0.50;;;;;;;5.61;78.19;101535.94;5008570;28;20053;-48
2023/02/25 08:50:08;;;;;;;0.98;0.32;;;;;;;5.61;78.09;101526.88;5007810;28;20045;-47
2023/02/25 08:52:56;;;;;;;2.67;0.80;;;;;;;5.63;77.70;101530.13;5002039;28;20057;-47
2023/02/25 08:55:43;;;;;;;4.95;1.10;;;;;;;5.68;77.68;101532.81;5008429;28;20451;-48
2023/02/25 08:58:31;;;;;;;0.90;0.40;;;;;;;5.71;77.64;101527.56;4996389;28;20476;-47
2023/02/25 09:01:19;;;;;;;4.38;0.60;;;;;;;5.75;77.23;101528.59;5003671;28;20058;-46
2023/02/25 09:04:06;;;;;;;3.30;0.30;;;;;;;5.79;77.13;101531.59;5003546;28;20407;-46
2023/02/25 09:06:53;;;;;;;2.25;0.80;;;;;;;5.85;76.75;101530.44;5007805;28;20053;-50
2023/02/25 09:09:40;;;;;;;5.65;0.55;;;;;;;5.92;77.06;101539.13;4994665;28;20046;-46
2023/02/25 09:12:29;;;;;;;2.53;0.52;;;;;;;5.99;76.73;101529.41;5005812;28;20054;-47
2023/02/25 09:15:16;;;;;;;4.35;1.40;;;;;;;6.08;76.23;101535.06;4992750;28;20056;-46
2023/02/25 09:18:03;;;;;;;1.77;0.60;;;;;;;6.18;76.32;101540.41;4999074;28;20518;-48
2023/02/25 09:20:50;;;;;;;0.90;0.50;;;;;;;6.29;76.05;101539.16;5008328;28;20069;-46
2023/02/25 09:23:37;;;;;;;4.13;1.17;;;;;;;6.32;75.56;101535.84;5008103;28;20053;-47
2023/02/25 09:26:24;;;;;;;3.90;1.35;;;;;;;6.32;75.14;101546.81;5007124;28;20492;-46
2023/02/25 09:29:11;;;;;;;3.95;0.50;;;;;;;6.23;75.19;101537.59;5008373;28;20058;-46
2023/02/25 09:31:58;;;;;;;1.80;0.70;;;;;;;6.16;75.20;101552.84;5007342;28;20053;-46
2023/02/25 09:34:48;;;;;;;5.60;1.05;;;;;;;6.12;75.38;101550.66;5008037;28;20058;-48
2023/02/25 09:37:35;;;;;;;8.85;1.25;;;;;;;6.10;75.09;101561.16;5008125;28;20046;-47
2023/02/25 09:40:22;;;;;;;5.30;1.13;;;;;;;6.12;75.42;101549.84;5007665;28;20050;-49
2023/02/25 09:43:27;;;;;;;8.40;1.33;;;;;;;6.08;74.76;101554.31;5007798;28;20052;-47
2023/02/25 09:46:17;;;;;;;5.00;1.17;;;;;;;6.00;74.09;101549.47;5007426;28;20057;-53
2023/02/25 09:49:20;;;;;;;5.50;1.38;;;;;;;5.94;74.30;101556.13;5005995;28;20049;-46
2023/02/25 09:52:11;;;;;;;6.32;1.13;;;;;;;5.95;74.23;101555.03;5007518;28;20050;-46
2023/02/25 09:55:05;;;;;;;4.35;0.88;;;;;;;5.97;74.47;101566.56;5007870;28;20046;-46
2023/02/25 09:58:01;;;;;;;8.07;1.05;;;;;;;6.01;74.42;101565.66;5006655;28;20050;-48
2023/02/25 10:01:14;;;;;;;6.65;1.50;;;;;;;6.05;74.22;101574.13;4993215;28;20052;-46
2023/02/25 10:04:13;;;;;;;4.55;0.57;;;;;;;6.22;73.96;101568.97;4985244;28;20047;-46
2023/02/25 10:07:11;;;;;;;4.45;1.30;;;;;;;6.37;73.73;101568.75;4985618;28;20051;-47
2023/02/25 10:10:14;;;;;;;8.38;1.50;;;;;;;6.49;73.52;101555.34;4988993;28;20058;-48
2023/02/25 10:13:15;;;;;;;2.95;0.93;;;;;;;6.44;72.41;101565.63;4988297;28;20077;-47
2023/02/25 10:16:53;;;;;;;3.28;0.60;;;;;;;6.30;71.91;101571.03;4991208;28;20062;-46
2023/02/25 10:20:01;;;;;;;1.92;0.60;;;;;;;6.21;71.30;101578.31;4991231;28;20054;-46
2023/02/25 10:23:06;;;;;;;0.50;0.30;;;;;;;6.10;70.67;101590.56;4982365;28;20058;-46
2023/02/25 10:26:02;;;;;;;2.05;0.25;;;;;;;6.01;70.65;101584.09;4980398;28;20057;-47
2023/02/25 10:28:59;;;;;;;2.28;0.40;;;;;;;6.14;70.19;101586.94;4990600;28;20500;-50
2023/02/25 10:31:46;;;;;;;2.58;0.55;;;;;;;6.27;70.36;101588.16;4990447;28;20061;-47
2023/02/25 10:34:37;;;;;;;1.52;0.40;;;;;;;6.38;70.69;101577.81;4991078;28;20050;-47
2023/02/25 10:37:36;;;;;;;5.70;0.50;;;;;;;6.40;69.52;101587.41;4990262;28;20049;-47
2023/02/25 10:40:28;;;;;;;4.25;0.47;;;;;;;6.32;69.14;101579.84;4990423;28;20046;-48
2023/02/25 10:43:21;;;;;;;0.75;0.40;;;;;;;6.19;69.33;101588.81;4991409;28;20046;-46
2023/02/25 10:46:36;;;;;;;2.83;0.93;;;;;;;6.15;69.20;101582.25;4990047;28;20062;-47
2023/02/25 10:49:26;;;;;;;0.95;0.40;;;;;;;6.16;69.25;101597.66;4988525;28;20519;-49
2023/02/25 10:52:16;;;;;;;3.28;0.63;;;;;;;6.09;69.03;101597.16;4983823;28;20046;-47
2023/02/25 10:55:03;;;;;;;3.47;0.50;;;;;;;6.01;69.03;101590.41;4991396;28;20444;-47
2023/02/25 10:57:50;;;;;;;1.48;0.40;;;;;;;5.94;68.84;101598.19;4976422;28;20141;-47
2023/02/25 11:00:39;;;;;;;11.13;1.05;;;;;;;6.02;69.00;101602.22;4990835;28;20149;-47
2023/02/25 11:03:30;;;;;;;8.40;0.80;;;;;;;6.14;68.71;101594.38;4994942;28;20050;-48
2023/02/25 11:06:23;;;;;;;6.90;0.88;;;;;;;6.23;68.58;101598.09;4990311;28;20492;-47
2023/02/25 11:09:19;;;;;;;2.13;0.70;;;;;;;6.29;68.44;101601.59;4989852;28;20053;-47
2023/02/25 11:12:06;;;;;;;4.35;0.82;;;;;;;6.35;68.80;101604.00;4990301;28;20051;-47
2023/02/25 11:14:53;;;;;;;3.35;0.90;;;;;;;6.48;68.77;101611.50;4988785;28;20046;-47
2023/02/25 11:17:43;;;;;;;3.30;0.70;;;;;;;6.65;68.53;101600.78;4980627;28;20492;-47
2023/02/25 11:20:31;;;;;;;3.13;0.70;;;;;;;6.85;68.52;101602.41;4990538;28;20424;-47
2023/02/25 11:23:30;;;;;;;4.10;0.68;;;;;;;7.00;68.19;101593.09;4990199;28;20424;-47
2023/02/25 11:26:29;;;;;;;6.82;0.65;;;;;;;7.10;68.23;101592.91;4989771;28;20054;-47
2023/02/25 11:29:21;;;;;;;2.42;0.65;;;;;;;7.29;68.32;101593.69;4990113;28;20554;-47
2023/02/25 11:32:14;;;;;;;;;;;;;;;7.39;68.11;101590.72;4983039;28;20412;-46
2023/02/25 11:35:07;;;;;;;1.55;0.60;;;;;;;7.36;67.90;101594.91;4989099;28;20375;-47
2023/02/25 11:37:57;;;;;;;3.50;0.88;;;;;;;7.22;67.71;101593.25;4989708;28;20444;-46
2023/02/25 11:40:44;;;;;;;2.47;1.38;;;;;;;7.19;67.81;101604.88;4988953;28;20057;-47
2023/02/25 11:43:39;;;;;;;5.68;0.60;;;;;;;7.14;67.66;101591.19;4990115;28;20073;-50
2023/02/25 11:46:31;;;;;;;2.45;0.57;;;;;;;7.27;67.87;101601.44;4988739;28;20763;-47
2023/02/25 11:49:42;;;;;;;2.78;0.70;;;;;;;7.29;67.48;101600.00;4979799;28;20038;-48
2023/02/25 11:52:38;;;;;;;3.70;0.80;;;;;;;7.25;67.33;101601.72;4988192;28;20062;-52
2023/02/25 11:55:51;;;;;;;4.60;1.27;;;;;;;7.24;67.12;101607.53;4982274;28;20462;-47
2023/02/25 11:59:12;;;;;;;3.88;1.40;;;;;;;7.29;67.76;101607.44;4979905;28;20522;-46
2023/02/25 12:02:18;;;;;;;4.32;0.80;;;;;;;7.32;67.79;101615.13;5003104;28;20045;-47
2023/02/25 12:05:07;;;;;;;3.70;0.90;;;;;;;7.37;67.64;101620.53;4998149;28;20475;-49
2023/02/25 12:08:18;;;;;;;4.90;1.58;;;;;;;7.41;67.52;101613.31;5008480;28;20052;-44
2023/02/25 12:11:23;;;;;;;4.13;1.08;;;;;;;7.41;67.50;101620.75;5006624;28;20041;-47
2023/02/25 12:14:49;;;;;;;8.30;1.02;;;;;;;7.40;67.44;101613.59;5008248;28;20392;-44
2023/02/25 12:18:03;;;;;;;4.97;1.00;;;;;;;7.36;67.40;101616.13;4997998;28;20052;-44
2023/02/25 12:21:18;;;;;;;4.03;1.05;;;;;;;7.35;67.34;101614.50;5008271;28;20064;-46
2023/02/25 12:24:11;;;;;;;5.55;1.50;;;;;;;7.27;67.33;101617.97;5003930;28;20435;-50
2023/02/25 12:27:11;;;;;;;;;;;;;;;7.25;67.00;101614.69;5007214;28;20050;-44
2023/02/25 12:30:14;;;;;;;9.30;1.38;;;;;;;7.23;67.26;101603.13;5004167;28;19941;-44
2023/02/25 12:33:09;;;;;;;9.07;1.02;;;;;;;7.20;66.88;101606.53;5008530;28;20042;-44
2023/02/25 12:36:19;;;;;;;4.45;1.23;;;;;;;7.11;66.97;101608.31;5002009;28;20064;-46
2023/02/25 12:39:17;;;;;;;13.02;1.90;;;;;;;7.09;66.73;101613.31;5001853;28;20064;-47
2023/02/25 12:42:33;;;;;;;5.43;0.80;;;;;;;7.09;66.61;101616.06;4996035;28;20058;-47
2023/02/25 12:45:58;;;;;;;3.97;1.42;;;;;;;7.03;66.70;101615.34;5007127;28;20042;-47
2023/02/25 12:49:09;;;;;;;7.70;1.67;;;;;;;6.97;66.64;101610.19;4965963;28;20043;-46
2023/02/25 12:52:14;;;;;;;9.20;1.80;;;;;;;6.91;66.28;101605.91;4961103;28;20219;-46
2023/02/25 12:55:40;;;;;;;5.88;1.25;;;;;;;6.73;66.12;101600.13;4999303;28;20065;-46
2023/02/25 12:59:03;;;;;;;13.07;1.63;;;;;;;6.66;66.40;101602.44;5001654;28;20752;-48
2023/02/25 13:02:01;;;;;;;6.70;1.20;;;;;;;6.76;66.75;101595.94;5019963;28;20045;-48
2023/02/25 13:04:57;;;;;;;6.88;2.83;;;;;;;6.98;66.54;101603.59;5019122;28;20053;-47
2023/02/25 13:07:55;;;;;;;8.30;1.83;;;;;;;6.95;66.02;101604.19;5018853;28;20487;-48
2023/02/25 13:11:15;;;;;;;4.18;1.35;;;;;;;7.05;66.08;101590.25;5028100;28;20128;-46
2023/02/25 13:14:02;;;;;;;7.50;1.38;;;;;;;7.12;66.21;101593.44;5027282;28;20049;-49
2023/02/25 13:16:57;;;;;;;7.78;1.50;;;;;;;7.25;65.98;101589.91;5027220;28;20052;-48
2023/02/25 13:20:05;;;;;;;15.60;2.88;;;;;;;7.35;65.73;101592.47;5027147;28;20053;-46
2023/02/25 13:22:55;;;;;;;7.60;1.40;;;;;;;7.46;65.91;101596.69;5027988;28;20056;-46
2023/02/25 13:26:10;;;;;;;3.17;0.73;;;;;;;7.47;65.11;101595.53;5027067;28;20056;-46
2023/02/25 13:29:32;;;;;;;9.80;2.03;;;;;;;7.27;64.87;101590.41;5015520;28;20045;-46